sensor_id;sensor_type;location;lat;lon;timestamp;temperature;humidity
67769;DHT22;54569;52.018;5.584;2022-12-11T00:02:04;1.60;93.00
67769;DHT22;54569;52.018;5.584;2022-12-11T00:04:31;1.60;93.10
67769;DHT22;54569;52.018;5.584;2022-12-11T00:06:56;1.60;92.90
67769;DHT22;54569;52.018;5.584;2022-12-11T00:09:22;1.60;93.10
67769;DHT22;54569;52.018;5.584;2022-12-11T00:11:48;1.60;93.20
67769;DHT22;54569;52.018;5.584;2022-12-11T00:14:14;1.60;93.10
67769;DHT22;54569;52.018;5.584;2022-12-11T00:16:40;1.60;93.10
67769;DHT22;54569;52.018;5.584;2022-12-11T00:19:06;1.60;93.20
67769;DHT22;54569;52.018;5.584;2022-12-11T00:21:32;1.60;93.10
67769;DHT22;54569;52.018;5.584;2022-12-11T00:23:58;1.60;93.10
67769;DHT22;54569;52.018;5.584;2022-12-11T00:26:25;1.60;93.10
67769;DHT22;54569;52.018;5.584;2022-12-11T00:28:55;1.60;93.20
67769;DHT22;54569;52.018;5.584;2022-12-11T00:31:22;1.60;93.20
67769;DHT22;54569;52.018;5.584;2022-12-11T00:33:48;1.60;93.30
67769;DHT22;54569;52.018;5.584;2022-12-11T00:36:20;1.60;93.30
67769;DHT22;54569;52.018;5.584;2022-12-11T00:38:46;1.70;93.30
67769;DHT22;54569;52.018;5.584;2022-12-11T00:41:13;1.70;93.20
67769;DHT22;54569;52.018;5.584;2022-12-11T00:43:39;1.70;93.10
67769;DHT22;54569;52.018;5.584;2022-12-11T00:46:05;1.70;93.00
67769;DHT22;54569;52.018;5.584;2022-12-11T00:48:31;1.70;93.10
67769;DHT22;54569;52.018;5.584;2022-12-11T00:50:58;1.70;93.20
67769;DHT22;54569;52.018;5.584;2022-12-11T00:53:23;1.80;93.20
67769;DHT22;54569;52.018;5.584;2022-12-11T00:55:49;1.80;93.20
67769;DHT22;54569;52.018;5.584;2022-12-11T00:58:15;1.80;93.10
67769;DHT22;54569;52.018;5.584;2022-12-11T01:00:41;1.80;93.10
67769;DHT22;54569;52.018;5.584;2022-12-11T01:03:08;1.80;93.40
67769;DHT22;54569;52.018;5.584;2022-12-11T01:05:35;1.80;93.30
67769;DHT22;54569;52.018;5.584;2022-12-11T01:08:00;1.80;93.10
67769;DHT22;54569;52.018;5.584;2022-12-11T01:10:26;1.80;93.40
67769;DHT22;54569;52.018;5.584;2022-12-11T01:12:58;1.80;93.10
67769;DHT22;54569;52.018;5.584;2022-12-11T01:15:26;1.80;93.60
67769;DHT22;54569;52.018;5.584;2022-12-11T01:17:52;1.80;93.40
67769;DHT22;54569;52.018;5.584;2022-12-11T01:20:19;1.80;93.30
67769;DHT22;54569;52.018;5.584;2022-12-11T01:22:45;1.80;93.20
67769;DHT22;54569;52.018;5.584;2022-12-11T01:25:11;1.80;93.20
67769;DHT22;54569;52.018;5.584;2022-12-11T01:27:38;1.80;93.20
67769;DHT22;54569;52.018;5.584;2022-12-11T01:30:07;1.80;93.30
67769;DHT22;54569;52.018;5.584;2022-12-11T01:32:34;1.80;93.20
67769;DHT22;54569;52.018;5.584;2022-12-11T01:35:02;1.80;93.30
67769;DHT22;54569;52.018;5.584;2022-12-11T01:37:29;1.80;93.20
67769;DHT22;54569;52.018;5.584;2022-12-11T01:39:55;1.80;93.30
67769;DHT22;54569;52.018;5.584;2022-12-11T01:42:21;1.80;93.20
67769;DHT22;54569;52.018;5.584;2022-12-11T01:47:12;1.80;93.30
67769;DHT22;54569;52.018;5.584;2022-12-11T01:49:39;1.80;93.30
67769;DHT22;54569;52.018;5.584;2022-12-11T01:52:18;1.80;93.30
67769;DHT22;54569;52.018;5.584;2022-12-11T01:54:47;1.80;93.40
67769;DHT22;54569;52.018;5.584;2022-12-11T01:57:14;1.80;93.30
67769;DHT22;54569;52.018;5.584;2022-12-11T01:59:42;1.80;93.40
67769;DHT22;54569;52.018;5.584;2022-12-11T02:02:23;1.80;93.50
67769;DHT22;54569;52.018;5.584;2022-12-11T02:04:51;1.80;94.00
67769;DHT22;54569;52.018;5.584;2022-12-11T02:07:16;1.80;94.00
67769;DHT22;54569;52.018;5.584;2022-12-11T02:09:44;1.80;93.90
67769;DHT22;54569;52.018;5.584;2022-12-11T02:12:40;1.80;93.70
67769;DHT22;54569;52.018;5.584;2022-12-11T02:20:47;1.90;93.70
67769;DHT22;54569;52.018;5.584;2022-12-11T02:29:00;1.90;93.70
67769;DHT22;54569;52.018;5.584;2022-12-11T02:34:02;1.90;93.50
67769;DHT22;54569;52.018;5.584;2022-12-11T02:36:33;1.90;93.40
67769;DHT22;54569;52.018;5.584;2022-12-11T02:39:01;2.00;93.40
67769;DHT22;54569;52.018;5.584;2022-12-11T02:41:28;2.00;93.60
67769;DHT22;54569;52.018;5.584;2022-12-11T02:43:56;2.00;93.50
67769;DHT22;54569;52.018;5.584;2022-12-11T02:46:23;2.00;93.40
67769;DHT22;54569;52.018;5.584;2022-12-11T02:48:50;2.00;93.40
67769;DHT22;54569;52.018;5.584;2022-12-11T02:51:22;2.00;93.40
67769;DHT22;54569;52.018;5.584;2022-12-11T02:53:50;2.00;93.40
67769;DHT22;54569;52.018;5.584;2022-12-11T02:56:39;2.00;93.40
67769;DHT22;54569;52.018;5.584;2022-12-11T02:59:12;2.00;93.40
67769;DHT22;54569;52.018;5.584;2022-12-11T03:01:40;2.00;93.40
67769;DHT22;54569;52.018;5.584;2022-12-11T03:04:06;2.00;93.40
67769;DHT22;54569;52.018;5.584;2022-12-11T03:06:36;2.10;93.40
67769;DHT22;54569;52.018;5.584;2022-12-11T03:09:03;2.10;93.40
67769;DHT22;54569;52.018;5.584;2022-12-11T03:11:29;2.10;93.60
67769;DHT22;54569;52.018;5.584;2022-12-11T03:13:57;2.10;93.30
67769;DHT22;54569;52.018;5.584;2022-12-11T03:16:34;2.10;93.20
67769;DHT22;54569;52.018;5.584;2022-12-11T03:19:04;2.10;93.20
67769;DHT22;54569;52.018;5.584;2022-12-11T03:21:53;2.10;93.20
67769;DHT22;54569;52.018;5.584;2022-12-11T03:24:38;2.10;93.20
67769;DHT22;54569;52.018;5.584;2022-12-11T03:27:19;2.10;93.30
67769;DHT22;54569;52.018;5.584;2022-12-11T03:29:55;2.10;93.30
67769;DHT22;54569;52.018;5.584;2022-12-11T03:32:27;2.10;93.30
67769;DHT22;54569;52.018;5.584;2022-12-11T03:35:12;2.10;93.20
67769;DHT22;54569;52.018;5.584;2022-12-11T03:37:40;2.10;93.20
67769;DHT22;54569;52.018;5.584;2022-12-11T03:40:11;2.20;93.20
67769;DHT22;54569;52.018;5.584;2022-12-11T03:42:38;2.20;93.20
67769;DHT22;54569;52.018;5.584;2022-12-11T03:45:05;2.20;93.20
67769;DHT22;54569;52.018;5.584;2022-12-11T03:47:33;2.20;93.20
67769;DHT22;54569;52.018;5.584;2022-12-11T03:50:00;2.20;93.10
67769;DHT22;54569;52.018;5.584;2022-12-11T03:52:27;2.20;93.10
67769;DHT22;54569;52.018;5.584;2022-12-11T03:54:55;2.20;93.00
67769;DHT22;54569;52.018;5.584;2022-12-11T03:57:26;2.20;93.00
67769;DHT22;54569;52.018;5.584;2022-12-11T03:59:53;2.30;93.00
67769;DHT22;54569;52.018;5.584;2022-12-11T04:02:19;2.20;93.00
67769;DHT22;54569;52.018;5.584;2022-12-11T04:04:44;2.30;93.00
67769;DHT22;54569;52.018;5.584;2022-12-11T04:07:10;2.30;93.00
67769;DHT22;54569;52.018;5.584;2022-12-11T04:09:36;2.30;93.00
67769;DHT22;54569;52.018;5.584;2022-12-11T04:12:02;2.30;93.00
67769;DHT22;54569;52.018;5.584;2022-12-11T04:14:27;2.30;93.00
67769;DHT22;54569;52.018;5.584;2022-12-11T04:17:11;2.30;93.00
67769;DHT22;54569;52.018;5.584;2022-12-11T04:19:57;2.30;93.00
67769;DHT22;54569;52.018;5.584;2022-12-11T04:22:41;2.30;93.00
67769;DHT22;54569;52.018;5.584;2022-12-11T04:25:25;2.30;93.00
67769;DHT22;54569;52.018;5.584;2022-12-11T04:27:51;2.30;93.10
67769;DHT22;54569;52.018;5.584;2022-12-11T04:30:23;2.30;93.00
67769;DHT22;54569;52.018;5.584;2022-12-11T04:32:52;2.30;93.00
67769;DHT22;54569;52.018;5.584;2022-12-11T04:35:18;2.30;92.90
67769;DHT22;54569;52.018;5.584;2022-12-11T04:37:44;2.30;93.00
67769;DHT22;54569;52.018;5.584;2022-12-11T04:40:12;2.20;92.90
67769;DHT22;54569;52.018;5.584;2022-12-11T04:42:39;2.30;92.90
67769;DHT22;54569;52.018;5.584;2022-12-11T04:45:06;2.30;92.80
67769;DHT22;54569;52.018;5.584;2022-12-11T04:47:35;2.30;92.80
67769;DHT22;54569;52.018;5.584;2022-12-11T04:50:01;2.20;92.80
67769;DHT22;54569;52.018;5.584;2022-12-11T04:52:27;2.20;92.80
67769;DHT22;54569;52.018;5.584;2022-12-11T04:54:52;2.20;92.70
67769;DHT22;54569;52.018;5.584;2022-12-11T04:57:18;2.30;92.70
67769;DHT22;54569;52.018;5.584;2022-12-11T04:59:46;2.30;92.60
67769;DHT22;54569;52.018;5.584;2022-12-11T05:02:12;2.30;92.60
67769;DHT22;54569;52.018;5.584;2022-12-11T05:04:38;2.30;92.60
67769;DHT22;54569;52.018;5.584;2022-12-11T05:07:04;2.30;92.60
67769;DHT22;54569;52.018;5.584;2022-12-11T05:09:29;2.30;92.50
67769;DHT22;54569;52.018;5.584;2022-12-11T05:11:55;2.40;92.50
67769;DHT22;54569;52.018;5.584;2022-12-11T05:14:21;2.40;92.50
67769;DHT22;54569;52.018;5.584;2022-12-11T05:16:47;2.40;92.50
67769;DHT22;54569;52.018;5.584;2022-12-11T05:19:13;2.40;92.50
67769;DHT22;54569;52.018;5.584;2022-12-11T05:21:38;2.40;92.50
67769;DHT22;54569;52.018;5.584;2022-12-11T05:24:04;2.40;92.70
67769;DHT22;54569;52.018;5.584;2022-12-11T05:26:30;2.40;92.40
67769;DHT22;54569;52.018;5.584;2022-12-11T05:28:56;2.40;92.40
67769;DHT22;54569;52.018;5.584;2022-12-11T05:31:24;2.40;92.40
67769;DHT22;54569;52.018;5.584;2022-12-11T05:33:51;2.50;92.50
67769;DHT22;54569;52.018;5.584;2022-12-11T05:36:20;2.50;92.40
67769;DHT22;54569;52.018;5.584;2022-12-11T05:38:46;2.50;92.40
67769;DHT22;54569;52.018;5.584;2022-12-11T05:41:14;2.50;92.40
67769;DHT22;54569;52.018;5.584;2022-12-11T05:43:40;2.50;92.40
67769;DHT22;54569;52.018;5.584;2022-12-11T05:46:16;2.50;92.50
67769;DHT22;54569;52.018;5.584;2022-12-11T05:48:43;2.50;92.40
67769;DHT22;54569;52.018;5.584;2022-12-11T05:51:10;2.50;92.40
67769;DHT22;54569;52.018;5.584;2022-12-11T05:53:37;2.50;92.50
67769;DHT22;54569;52.018;5.584;2022-12-11T05:56:27;2.40;92.50
67769;DHT22;54569;52.018;5.584;2022-12-11T05:58:53;2.40;92.50
67769;DHT22;54569;52.018;5.584;2022-12-11T06:01:34;2.40;92.50
67769;DHT22;54569;52.018;5.584;2022-12-11T06:04:00;2.40;92.50
67769;DHT22;54569;52.018;5.584;2022-12-11T06:06:26;2.30;92.40
67769;DHT22;54569;52.018;5.584;2022-12-11T06:08:54;2.30;92.30
67769;DHT22;54569;52.018;5.584;2022-12-11T06:11:21;2.30;92.30
67769;DHT22;54569;52.018;5.584;2022-12-11T06:13:47;2.30;92.20
67769;DHT22;54569;52.018;5.584;2022-12-11T06:16:13;2.30;92.20
67769;DHT22;54569;52.018;5.584;2022-12-11T06:18:41;2.30;92.20
67769;DHT22;54569;52.018;5.584;2022-12-11T06:23:40;2.30;92.10
67769;DHT22;54569;52.018;5.584;2022-12-11T06:26:07;2.30;92.10
67769;DHT22;54569;52.018;5.584;2022-12-11T06:28:33;2.30;92.00
67769;DHT22;54569;52.018;5.584;2022-12-11T06:30:59;2.40;92.00
67769;DHT22;54569;52.018;5.584;2022-12-11T06:33:25;2.30;92.00
67769;DHT22;54569;52.018;5.584;2022-12-11T06:35:51;2.40;91.90
67769;DHT22;54569;52.018;5.584;2022-12-11T06:38:17;2.40;91.90
67769;DHT22;54569;52.018;5.584;2022-12-11T06:40:44;2.40;91.90
67769;DHT22;54569;52.018;5.584;2022-12-11T06:43:10;2.40;91.90
67769;DHT22;54569;52.018;5.584;2022-12-11T06:45:36;2.40;91.90
67769;DHT22;54569;52.018;5.584;2022-12-11T06:48:02;2.40;91.80
67769;DHT22;54569;52.018;5.584;2022-12-11T06:50:28;2.40;91.70
67769;DHT22;54569;52.018;5.584;2022-12-11T06:52:57;2.30;91.70
67769;DHT22;54569;52.018;5.584;2022-12-11T06:55:23;2.30;91.70
67769;DHT22;54569;52.018;5.584;2022-12-11T06:57:48;2.30;91.70
67769;DHT22;54569;52.018;5.584;2022-12-11T07:00:14;2.30;91.60
67769;DHT22;54569;52.018;5.584;2022-12-11T07:02:40;2.30;91.70
67769;DHT22;54569;52.018;5.584;2022-12-11T07:05:06;2.30;91.70
67769;DHT22;54569;52.018;5.584;2022-12-11T07:07:32;2.30;91.60
67769;DHT22;54569;52.018;5.584;2022-12-11T07:09:59;2.30;91.50
67769;DHT22;54569;52.018;5.584;2022-12-11T07:12:24;2.20;91.60
67769;DHT22;54569;52.018;5.584;2022-12-11T07:14:50;2.30;91.60
67769;DHT22;54569;52.018;5.584;2022-12-11T07:17:16;2.30;91.60
67769;DHT22;54569;52.018;5.584;2022-12-11T07:19:41;2.30;91.60
67769;DHT22;54569;52.018;5.584;2022-12-11T07:22:07;2.20;91.50
67769;DHT22;54569;52.018;5.584;2022-12-11T07:24:33;2.30;91.60
67769;DHT22;54569;52.018;5.584;2022-12-11T07:26:58;2.30;91.60
67769;DHT22;54569;52.018;5.584;2022-12-11T07:29:24;2.20;91.60
67769;DHT22;54569;52.018;5.584;2022-12-11T07:31:50;2.20;91.60
67769;DHT22;54569;52.018;5.584;2022-12-11T07:34:16;2.20;91.60
67769;DHT22;54569;52.018;5.584;2022-12-11T07:36:42;2.20;91.60
67769;DHT22;54569;52.018;5.584;2022-12-11T07:39:10;2.20;91.60
67769;DHT22;54569;52.018;5.584;2022-12-11T07:41:36;2.20;91.60
67769;DHT22;54569;52.018;5.584;2022-12-11T07:44:05;2.20;91.60
67769;DHT22;54569;52.018;5.584;2022-12-11T07:46:32;2.20;91.60
67769;DHT22;54569;52.018;5.584;2022-12-11T07:48:58;2.20;91.60
67769;DHT22;54569;52.018;5.584;2022-12-11T07:51:33;2.20;91.60
67769;DHT22;54569;52.018;5.584;2022-12-11T07:54:14;2.20;91.60
67769;DHT22;54569;52.018;5.584;2022-12-11T07:56:45;2.20;91.60
67769;DHT22;54569;52.018;5.584;2022-12-11T07:59:11;2.20;91.70
67769;DHT22;54569;52.018;5.584;2022-12-11T08:01:37;2.20;91.60
67769;DHT22;54569;52.018;5.584;2022-12-11T08:04:06;2.20;91.50
67769;DHT22;54569;52.018;5.584;2022-12-11T08:06:34;2.20;91.60
67769;DHT22;54569;52.018;5.584;2022-12-11T08:09:03;2.10;91.40
67769;DHT22;54569;52.018;5.584;2022-12-11T08:11:30;2.10;91.40
67769;DHT22;54569;52.018;5.584;2022-12-11T08:13:57;2.10;91.40
67769;DHT22;54569;52.018;5.584;2022-12-11T08:16:24;2.10;91.50
67769;DHT22;54569;52.018;5.584;2022-12-11T08:18:50;2.10;91.50
67769;DHT22;54569;52.018;5.584;2022-12-11T08:21:23;2.10;91.70
67769;DHT22;54569;52.018;5.584;2022-12-11T08:23:50;2.10;91.50
67769;DHT22;54569;52.018;5.584;2022-12-11T08:26:28;2.10;91.50
67769;DHT22;54569;52.018;5.584;2022-12-11T08:28:54;2.10;91.50
67769;DHT22;54569;52.018;5.584;2022-12-11T08:31:21;2.10;91.50
67769;DHT22;54569;52.018;5.584;2022-12-11T08:33:47;2.10;91.50
67769;DHT22;54569;52.018;5.584;2022-12-11T08:36:16;2.10;91.50
67769;DHT22;54569;52.018;5.584;2022-12-11T08:38:42;2.10;91.50
67769;DHT22;54569;52.018;5.584;2022-12-11T08:43:34;2.00;91.40
67769;DHT22;54569;52.018;5.584;2022-12-11T08:45:59;2.00;91.40
67769;DHT22;54569;52.018;5.584;2022-12-11T08:48:25;2.00;91.40
67769;DHT22;54569;52.018;5.584;2022-12-11T08:50:51;2.00;91.40
67769;DHT22;54569;52.018;5.584;2022-12-11T08:53:16;2.00;91.40
67769;DHT22;54569;52.018;5.584;2022-12-11T08:55:42;2.00;91.30
67769;DHT22;54569;52.018;5.584;2022-12-11T08:58:08;2.00;91.40
67769;DHT22;54569;52.018;5.584;2022-12-11T09:00:34;2.10;91.40
67769;DHT22;54569;52.018;5.584;2022-12-11T09:03:00;2.10;91.40
67769;DHT22;54569;52.018;5.584;2022-12-11T09:05:26;2.10;91.40
67769;DHT22;54569;52.018;5.584;2022-12-11T09:07:52;2.10;91.40
67769;DHT22;54569;52.018;5.584;2022-12-11T09:10:18;2.20;91.30
67769;DHT22;54569;52.018;5.584;2022-12-11T09:12:43;2.20;91.30
67769;DHT22;54569;52.018;5.584;2022-12-11T09:15:09;2.20;91.20
67769;DHT22;54569;52.018;5.584;2022-12-11T09:17:35;2.20;91.30
67769;DHT22;54569;52.018;5.584;2022-12-11T09:20:01;2.30;91.30
67769;DHT22;54569;52.018;5.584;2022-12-11T09:22:27;2.30;91.30
67769;DHT22;54569;52.018;5.584;2022-12-11T09:24:53;2.30;91.50
67769;DHT22;54569;52.018;5.584;2022-12-11T09:27:18;2.30;91.20
67769;DHT22;54569;52.018;5.584;2022-12-11T09:29:46;2.30;91.30
67769;DHT22;54569;52.018;5.584;2022-12-11T09:32:11;2.40;91.30
67769;DHT22;54569;52.018;5.584;2022-12-11T09:34:37;2.40;91.20
67769;DHT22;54569;52.018;5.584;2022-12-11T09:37:03;2.40;91.30
67769;DHT22;54569;52.018;5.584;2022-12-11T09:39:28;2.40;91.20
67769;DHT22;54569;52.018;5.584;2022-12-11T09:41:56;2.50;91.20
67769;DHT22;54569;52.018;5.584;2022-12-11T09:44:37;2.50;91.20
67769;DHT22;54569;52.018;5.584;2022-12-11T09:47:24;2.50;91.10
67769;DHT22;54569;52.018;5.584;2022-12-11T09:50:16;2.50;91.10
67769;DHT22;54569;52.018;5.584;2022-12-11T09:53:06;2.60;91.00
67769;DHT22;54569;52.018;5.584;2022-12-11T09:55:51;2.60;91.00
67769;DHT22;54569;52.018;5.584;2022-12-11T10:06:42;2.60;91.00
67769;DHT22;54569;52.018;5.584;2022-12-11T10:09:33;2.60;91.00
67769;DHT22;54569;52.018;5.584;2022-12-11T10:17:19;2.70;90.90
67769;DHT22;54569;52.018;5.584;2022-12-11T10:19:48;2.70;90.80
67769;DHT22;54569;52.018;5.584;2022-12-11T10:22:21;2.70;90.90
67769;DHT22;54569;52.018;5.584;2022-12-11T10:24:59;2.70;90.90
67769;DHT22;54569;52.018;5.584;2022-12-11T10:27:38;2.70;90.90
67769;DHT22;54569;52.018;5.584;2022-12-11T10:30:24;2.70;90.90
67769;DHT22;54569;52.018;5.584;2022-12-11T10:35:42;2.70;90.90
67769;DHT22;54569;52.018;5.584;2022-12-11T10:38:15;2.70;90.90
67769;DHT22;54569;52.018;5.584;2022-12-11T10:40:54;2.70;90.80
67769;DHT22;54569;52.018;5.584;2022-12-11T10:43:40;2.70;90.80
67769;DHT22;54569;52.018;5.584;2022-12-11T10:46:18;2.70;90.80
67769;DHT22;54569;52.018;5.584;2022-12-11T10:48:55;2.70;90.80
67769;DHT22;54569;52.018;5.584;2022-12-11T10:51:24;2.70;90.80
67769;DHT22;54569;52.018;5.584;2022-12-11T10:53:52;2.70;90.80
67769;DHT22;54569;52.018;5.584;2022-12-11T10:56:30;2.70;90.80
67769;DHT22;54569;52.018;5.584;2022-12-11T10:58:57;2.70;90.80
67769;DHT22;54569;52.018;5.584;2022-12-11T11:01:28;2.70;90.80
67769;DHT22;54569;52.018;5.584;2022-12-11T11:04:05;2.80;90.80
67769;DHT22;54569;52.018;5.584;2022-12-11T11:06:32;2.80;90.80
67769;DHT22;54569;52.018;5.584;2022-12-11T11:08:59;2.80;90.80
67769;DHT22;54569;52.018;5.584;2022-12-11T11:11:28;2.80;90.70
67769;DHT22;54569;52.018;5.584;2022-12-11T11:14:13;2.80;90.80
67769;DHT22;54569;52.018;5.584;2022-12-11T11:16:40;2.80;90.70
67769;DHT22;54569;52.018;5.584;2022-12-11T11:19:21;2.80;91.00
67769;DHT22;54569;52.018;5.584;2022-12-11T11:21:54;2.80;90.70
67769;DHT22;54569;52.018;5.584;2022-12-11T11:24:42;2.70;90.60
67769;DHT22;54569;52.018;5.584;2022-12-11T11:27:43;2.70;90.60
67769;DHT22;54569;52.018;5.584;2022-12-11T11:30:18;2.70;90.60
67769;DHT22;54569;52.018;5.584;2022-12-11T11:32:45;2.70;90.70
67769;DHT22;54569;52.018;5.584;2022-12-11T11:37:41;2.70;90.70
67769;DHT22;54569;52.018;5.584;2022-12-11T11:40:18;2.70;90.70
67769;DHT22;54569;52.018;5.584;2022-12-11T11:43:24;2.70;90.70
67769;DHT22;54569;52.018;5.584;2022-12-11T11:51:35;2.70;90.70
67769;DHT22;54569;52.018;5.584;2022-12-11T11:54:18;2.70;91.00
67769;DHT22;54569;52.018;5.584;2022-12-11T11:56:45;2.70;90.70
67769;DHT22;54569;52.018;5.584;2022-12-11T12:01:44;2.70;90.70
67769;DHT22;54569;52.018;5.584;2022-12-11T12:04:11;2.70;90.60
67769;DHT22;54569;52.018;5.584;2022-12-11T12:14:38;2.70;90.70
67769;DHT22;54569;52.018;5.584;2022-12-11T12:22:37;2.70;90.70
67769;DHT22;54569;52.018;5.584;2022-12-11T12:25:33;2.70;90.60
67769;DHT22;54569;52.018;5.584;2022-12-11T12:36:14;2.70;90.60
67769;DHT22;54569;52.018;5.584;2022-12-11T12:38:57;2.70;90.60
67769;DHT22;54569;52.018;5.584;2022-12-11T12:41:50;2.60;90.60
67769;DHT22;54569;52.018;5.584;2022-12-11T12:44:21;2.70;90.70
67769;DHT22;54569;52.018;5.584;2022-12-11T12:46:58;2.70;90.70
67769;DHT22;54569;52.018;5.584;2022-12-11T12:51:58;2.70;90.60
67769;DHT22;54569;52.018;5.584;2022-12-11T12:54:26;2.70;90.70
67769;DHT22;54569;52.018;5.584;2022-12-11T12:56:52;2.70;90.70
67769;DHT22;54569;52.018;5.584;2022-12-11T12:59:23;2.70;90.70
67769;DHT22;54569;52.018;5.584;2022-12-11T13:01:58;2.70;90.70
67769;DHT22;54569;52.018;5.584;2022-12-11T13:04:34;2.70;90.70
67769;DHT22;54569;52.018;5.584;2022-12-11T13:07:20;2.70;90.70
67769;DHT22;54569;52.018;5.584;2022-12-11T13:10:06;2.70;90.70
67769;DHT22;54569;52.018;5.584;2022-12-11T13:12:42;2.70;90.70
67769;DHT22;54569;52.018;5.584;2022-12-11T13:18:01;2.70;90.60
67769;DHT22;54569;52.018;5.584;2022-12-11T13:20:30;2.70;90.70
67769;DHT22;54569;52.018;5.584;2022-12-11T13:25:52;2.70;90.80
67769;DHT22;54569;52.018;5.584;2022-12-11T13:28:24;2.70;90.80
67769;DHT22;54569;52.018;5.584;2022-12-11T13:31:00;2.70;90.80
67769;DHT22;54569;52.018;5.584;2022-12-11T13:33:27;2.70;90.80
67769;DHT22;54569;52.018;5.584;2022-12-11T13:38:58;2.70;90.90
67769;DHT22;54569;52.018;5.584;2022-12-11T13:41:26;2.70;90.90
67769;DHT22;54569;52.018;5.584;2022-12-11T13:43:52;2.70;90.90
67769;DHT22;54569;52.018;5.584;2022-12-11T13:46:23;2.70;90.90
67769;DHT22;54569;52.018;5.584;2022-12-11T13:48:52;2.70;90.90
67769;DHT22;54569;52.018;5.584;2022-12-11T13:51:24;2.70;90.90
67769;DHT22;54569;52.018;5.584;2022-12-11T13:54:02;2.70;90.90
67769;DHT22;54569;52.018;5.584;2022-12-11T13:56:28;2.70;90.90
67769;DHT22;54569;52.018;5.584;2022-12-11T13:58:54;2.70;90.80
67769;DHT22;54569;52.018;5.584;2022-12-11T14:01:23;2.70;90.90
67769;DHT22;54569;52.018;5.584;2022-12-11T14:04:11;2.70;90.90
67769;DHT22;54569;52.018;5.584;2022-12-11T14:06:41;2.70;90.90
67769;DHT22;54569;52.018;5.584;2022-12-11T14:09:07;2.70;91.00
67769;DHT22;54569;52.018;5.584;2022-12-11T14:11:35;2.70;90.90
67769;DHT22;54569;52.018;5.584;2022-12-11T14:14:04;2.70;90.90
67769;DHT22;54569;52.018;5.584;2022-12-11T14:16:31;2.80;91.00
67769;DHT22;54569;52.018;5.584;2022-12-11T14:19:06;2.80;90.90
67769;DHT22;54569;52.018;5.584;2022-12-11T14:21:32;2.80;90.90
67769;DHT22;54569;52.018;5.584;2022-12-11T14:24:00;2.80;90.90
67769;DHT22;54569;52.018;5.584;2022-12-11T14:26:33;2.80;90.90
67769;DHT22;54569;52.018;5.584;2022-12-11T14:28:59;2.70;90.80
67769;DHT22;54569;52.018;5.584;2022-12-11T14:31:39;2.70;91.00
67769;DHT22;54569;52.018;5.584;2022-12-11T14:34:12;2.70;90.90
67769;DHT22;54569;52.018;5.584;2022-12-11T14:36:40;2.70;91.00
67769;DHT22;54569;52.018;5.584;2022-12-11T14:40:00;2.70;91.00
67769;DHT22;54569;52.018;5.584;2022-12-11T14:42:32;2.70;91.00
67769;DHT22;54569;52.018;5.584;2022-12-11T14:47:36;2.70;91.00
67769;DHT22;54569;52.018;5.584;2022-12-11T14:52:58;2.60;91.00
67769;DHT22;54569;52.018;5.584;2022-12-11T14:55:30;2.60;91.00
67769;DHT22;54569;52.018;5.584;2022-12-11T14:58:21;2.60;91.10
67769;DHT22;54569;52.018;5.584;2022-12-11T15:01:04;2.60;91.10
67769;DHT22;54569;52.018;5.584;2022-12-11T15:03:39;2.60;91.10
67769;DHT22;54569;52.018;5.584;2022-12-11T15:06:31;2.50;91.10
67769;DHT22;54569;52.018;5.584;2022-12-11T15:09:53;2.50;91.10
67769;DHT22;54569;52.018;5.584;2022-12-11T15:11:55;2.50;91.20
67769;DHT22;54569;52.018;5.584;2022-12-11T15:14:23;2.50;91.20
67769;DHT22;54569;52.018;5.584;2022-12-11T15:16:51;2.50;91.30
67769;DHT22;54569;52.018;5.584;2022-12-11T15:19:22;2.50;91.20
67769;DHT22;54569;52.018;5.584;2022-12-11T15:21:49;2.50;91.30
67769;DHT22;54569;52.018;5.584;2022-12-11T15:24:38;2.50;91.20
67769;DHT22;54569;52.018;5.584;2022-12-11T15:27:05;2.50;91.20
67769;DHT22;54569;52.018;5.584;2022-12-11T15:29:36;2.50;91.20
67769;DHT22;54569;52.018;5.584;2022-12-11T15:37:32;2.60;91.10
67769;DHT22;54569;52.018;5.584;2022-12-11T15:40:01;2.60;91.10
67769;DHT22;54569;52.018;5.584;2022-12-11T15:42:34;2.50;91.10
67769;DHT22;54569;52.018;5.584;2022-12-11T15:45:01;2.60;91.10
67769;DHT22;54569;52.018;5.584;2022-12-11T15:47:29;2.50;91.10
67769;DHT22;54569;52.018;5.584;2022-12-11T15:50:22;2.50;91.10
67769;DHT22;54569;52.018;5.584;2022-12-11T15:52:49;2.50;91.10
67769;DHT22;54569;52.018;5.584;2022-12-11T15:55:15;2.60;91.20
67769;DHT22;54569;52.018;5.584;2022-12-11T15:57:45;2.60;91.20
67769;DHT22;54569;52.018;5.584;2022-12-11T16:00:16;2.50;91.20
67769;DHT22;54569;52.018;5.584;2022-12-11T16:02:43;2.50;91.20
67769;DHT22;54569;52.018;5.584;2022-12-11T16:05:09;2.50;91.20
67769;DHT22;54569;52.018;5.584;2022-12-11T16:07:35;2.40;91.40
67769;DHT22;54569;52.018;5.584;2022-12-11T16:10:01;2.40;91.20
67769;DHT22;54569;52.018;5.584;2022-12-11T16:12:27;2.40;91.30
67769;DHT22;54569;52.018;5.584;2022-12-11T16:14:52;2.40;91.30
67769;DHT22;54569;52.018;5.584;2022-12-11T16:17:18;2.30;91.30
67769;DHT22;54569;52.018;5.584;2022-12-11T16:19:44;2.30;91.30
67769;DHT22;54569;52.018;5.584;2022-12-11T16:22:11;2.30;91.30
67769;DHT22;54569;52.018;5.584;2022-12-11T16:24:38;2.40;91.40
67769;DHT22;54569;52.018;5.584;2022-12-11T16:27:05;2.30;91.30
67769;DHT22;54569;52.018;5.584;2022-12-11T16:29:39;2.30;91.40
67769;DHT22;54569;52.018;5.584;2022-12-11T16:32:06;2.30;91.40
67769;DHT22;54569;52.018;5.584;2022-12-11T16:34:33;2.30;91.40
67769;DHT22;54569;52.018;5.584;2022-12-11T16:37:04;2.30;91.40
67769;DHT22;54569;52.018;5.584;2022-12-11T16:39:29;2.30;91.30
67769;DHT22;54569;52.018;5.584;2022-12-11T16:41:55;2.30;91.40
67769;DHT22;54569;52.018;5.584;2022-12-11T16:44:23;2.30;91.40
67769;DHT22;54569;52.018;5.584;2022-12-11T16:46:49;2.30;91.40
67769;DHT22;54569;52.018;5.584;2022-12-11T16:49:17;2.30;91.40
67769;DHT22;54569;52.018;5.584;2022-12-11T16:51:42;2.40;91.40
67769;DHT22;54569;52.018;5.584;2022-12-11T16:54:09;2.40;91.30
67769;DHT22;54569;52.018;5.584;2022-12-11T16:56:36;2.40;91.30
67769;DHT22;54569;52.018;5.584;2022-12-11T16:59:27;2.30;91.30
67769;DHT22;54569;52.018;5.584;2022-12-11T17:01:53;2.30;91.30
67769;DHT22;54569;52.018;5.584;2022-12-11T17:04:19;2.30;91.30
67769;DHT22;54569;52.018;5.584;2022-12-11T17:06:45;2.40;91.40
67769;DHT22;54569;52.018;5.584;2022-12-11T17:09:11;2.30;91.30
67769;DHT22;54569;52.018;5.584;2022-12-11T17:11:37;2.30;91.40
67769;DHT22;54569;52.018;5.584;2022-12-11T17:14:03;2.20;91.40
67769;DHT22;54569;52.018;5.584;2022-12-11T17:16:28;2.20;91.40
67769;DHT22;54569;52.018;5.584;2022-12-11T17:18:57;2.20;91.40
67769;DHT22;54569;52.018;5.584;2022-12-11T17:21:23;2.20;91.40
67769;DHT22;54569;52.018;5.584;2022-12-11T17:23:50;2.20;91.40
67769;DHT22;54569;52.018;5.584;2022-12-11T17:26:16;2.20;91.40
67769;DHT22;54569;52.018;5.584;2022-12-11T17:28:42;2.20;91.40
67769;DHT22;54569;52.018;5.584;2022-12-11T17:31:11;2.20;91.40
67769;DHT22;54569;52.018;5.584;2022-12-11T17:33:38;2.20;91.40
67769;DHT22;54569;52.018;5.584;2022-12-11T17:36:05;2.20;91.70